Airport Name : Calgary Intl

Other Name : Calgary Intl

ICAO : CYYC

IATA : YYC

FAA :

Latitude : 51.113888

Longitude : -114.020278

Country : Canada

Local Date and Time : 10/23/2018 1:06:00 AM

 

TAF (Terminal Aerodrome Forecast)

TAF CYYC 230538Z 2306/2406 18005KT P6SM SKC BECMG 2318/2320 13005KT BECMG 2402/2404 20005KT RMK NXT FCST BY 230900Z

 

METAR (METeorological Aerodrome Report)

CYYC 230616Z 18005KT 15SM SKC 02/M05 A3000 RMK SLP197

CYYC 230600Z 19005KT 15SM SKC 04/M03 A3001 RMK SLP195

CYYC 230500Z 19005KT 15SM FEW220 04/M03 A3002 RMK CI1 CI TR SLP202

CYYC 230400Z 18006KT 15SM FEW150 FEW220 05/M03 A3004 RMK AC1CI1 AC TR CI TR SLP211